Flight Track Log - Related Links

Times and Time Zones

All times are in EST time to prevent confusion due to time zone crossing. See the N6101G flight status page for this flight to view local times or setup timezone preferences in your user account.

Time Position Orientation Groundspeed Altitude Reporting Facility
EST Latitude Longitude Course Direction KTS MPH feet Rate Location/Type
Fri 02:41:35 PM 26.7258 -80.2594 309° West 155 178 3,800  Level Miami Center
Fri 02:42:35 PM 26.7397 -80.2969 293° West 165 190 5,000 1,250 Climbing Miami Center
Fri 02:43:35 PM 26.7742 -80.3331 317° Northwest 160 184 6,300 1,250 Climbing Miami Center
Fri 02:44:00 PM 27.0054 -80.1253 332° Northwest  Level Estimated
Fri 02:44:35 PM 26.8028 -80.3594 321° Northwest 154 177 7,500  Level Miami Center
Fri 02:45:00 PM 27.0374 -80.1739 306° West  Level FlightAware Approximate
Fri 02:45:35 PM 26.8375 -80.3953 317° Northwest 149 171 8,900  Level Miami Center
Fri 02:46:00 PM 27.0912 -80.1786 333° Northwest  Level Estimated
Fri 02:46:35 PM 26.8681 -80.4289 316° Northwest 149 171 10,000  Level Miami Center
Fri 02:47:00 PM 27.1247 -80.2260 309° West  Level FlightAware Approximate
Fri 02:47:35 PM 26.9006 -80.4578 322° Northwest 144 166 11,100  Level Miami Center
Fri 02:48:35 PM 26.9333 -80.4914 318° Northwest 163 188 11,100 650 Level Miami Center
Fri 02:49:35 PM 26.9658 -80.5272 316° Northwest 163 188 12,400 1,300 Climbing Miami Center
Fri 02:50:35 PM 27.0047 -80.5611 322° Northwest 163 188 13,700 1,200 Climbing Miami Center
Fri 02:51:35 PM 27.0414 -80.5928 322° Northwest 163 188 14,800 1,050 Climbing Miami Center
Fri 02:52:35 PM 27.0889 -80.6083 344° North 163 188 15,800 1,050 Climbing Miami Center
Fri 02:53:35 PM 27.1303 -80.6211 345° North 174 200 16,900 1,000 Climbing Miami Center
Fri 02:54:35 PM 27.1781 -80.6392 341° North 174 200 17,800 950 Climbing Miami Center
Fri 02:55:35 PM 27.2294 -80.6642 337° Northwest 174 200 18,800 1,050 Climbing Miami Center
Fri 02:56:35 PM 27.2728 -80.6867 335° Northwest 174 200 19,900 1,000 Climbing Miami Center
Fri 02:57:35 PM 27.3181 -80.7092 336° Northwest 174 200 20,800 900 Climbing Miami Center
Fri 02:58:35 PM 27.3675 -80.7342 336° Northwest 174 200 21,700 900 Climbing Miami Center
Fri 02:59:35 PM 27.4169 -80.7569 338° Northwest 179 206 22,600 650 Climbing Miami Center
Fri 03:00:35 PM 27.4581 -80.7794 334° Northwest 184 212 23,000 200 Climbing Miami Center
Fri 03:01:35 PM 27.5219 -80.8097 337° Northwest 208 239 23,000  Level Miami Center
Fri 03:02:35 PM 27.5817 -80.8397 336° Northwest 219 252 23,000  Level Miami Center
Fri 03:03:35 PM 27.6394 -80.8700 335° Northwest 227 261 23,000  Level Miami Center
Fri 03:04:35 PM 27.6969 -80.9000 335° Northwest 232 267 23,000  Level Miami Center
Fri 03:05:35 PM 27.7567 -80.9303 336° Northwest 232 267 23,000  Level Miami Center
Fri 03:06:35 PM 27.8142 -80.9606 335° Northwest 232 267 23,000  Level Miami Center
Fri 03:07:35 PM 27.8697 -80.9883 336° Northwest 227 261 23,000  Level Miami Center
Fri 03:08:35 PM 27.9275 -81.0164 337° Northwest 221 254 23,000  Level Miami Center
Fri 03:09:35 PM 27.9808 -81.0464 334° Northwest 216 249 23,000  Level Miami Center
Fri 03:10:35 PM 28.0406 -81.0744 337° Northwest 216 249 23,000  Level Miami Center
Fri 03:11:35 PM 28.1022 -81.1075 335° Northwest 216 249 23,000  Level Miami Center
Fri 03:12:35 PM 28.1597 -81.1378 335° Northwest 216 249 23,000  Level Miami Center
Fri 03:13:35 PM 28.2111 -81.1633 336° Northwest 216 249 23,000  Level Miami Center
Fri 03:15:25 PM 28.3144 -81.2186 335° Northwest 222 255 23,000  Level Jacksonville Center
Fri 03:16:25 PM 28.3731 -81.2483 336° Northwest 222 255 23,000  Level Jacksonville Center
Fri 03:17:25 PM 28.4278 -81.2756 336° Northwest 222 255 23,000  Level Jacksonville Center
Fri 03:18:25 PM 28.4844 -81.3078 333° Northwest 222 255 23,000  Level Jacksonville Center
Fri 03:19:25 PM 28.5411 -81.3353 337° Northwest 222 255 23,000  Level Jacksonville Center
Fri 03:20:25 PM 28.6019 -81.3486 349° North 222 255 23,000  Level Jacksonville Center
Fri 03:21:25 PM 28.6647 -81.3664 346° North 222 255 23,000  Level Jacksonville Center
Fri 03:22:25 PM 28.7253 -81.3822 347° North 222 255 23,000  Level Jacksonville Center
Fri 03:23:25 PM 28.7861 -81.3978 347° North 222 255 23,000  Level Jacksonville Center
Fri 03:24:25 PM 28.8467 -81.4111 349° North 222 255 23,000  Level Jacksonville Center
Fri 03:25:25 PM 28.9053 -81.4292 345° North 222 255 23,000  Level Jacksonville Center
Fri 03:26:25 PM 28.9661 -81.4403 351° North 222 255 23,000  Level Jacksonville Center
Fri 03:27:25 PM 29.0267 -81.4558 347° North 222 255 23,000  Level Jacksonville Center
Fri 03:28:25 PM 29.0856 -81.4764 343° North 222 255 23,000  Level Jacksonville Center
Fri 03:29:25 PM 29.1419 -81.4922 346° North 222 255 23,000  Level Jacksonville Center
Fri 03:30:25 PM 29.2047 -81.4961 357° North 222 255 23,000  Level Jacksonville Center
Fri 03:31:25 PM 29.2717 -81.5072 352° North 222 255 23,000  Level Jacksonville Center
Fri 03:32:25 PM 29.3361 -81.5061 North 222 255 23,000  Level Jacksonville Center
Fri 03:33:25 PM 29.3989 -81.5100 357° North 217 250 23,000  Level Jacksonville Center
Fri 03:34:25 PM 29.4617 -81.5139 357° North 217 250 23,000  Level Jacksonville Center
Fri 03:35:25 PM 29.5222 -81.5156 359° North 217 250 23,000  Level Jacksonville Center
Fri 03:36:25 PM 29.5847 -81.5217 355° North 217 250 23,000  Level Jacksonville Center
Fri 03:37:25 PM 29.6517 -81.5136 North 217 250 23,000  Level Jacksonville Center
Fri 03:38:25 PM 29.7139 -81.4983 12° North 222 255 23,000  Level Jacksonville Center
Fri 03:39:25 PM 29.7806 -81.4856 North 222 255 23,000  Level Jacksonville Center
Fri 03:40:25 PM 29.8514 -81.4725 North 241 277 23,000  Level Jacksonville Center
Fri 03:41:25 PM 29.9181 -81.4594 10° North 258 297 23,000  Level Jacksonville Center
Fri 03:42:25 PM 29.9931 -81.4442 10° North 263 303 23,000  Level Jacksonville Center
Fri 03:43:25 PM 30.0681 -81.4286 10° North 263 303 23,000  Level Jacksonville Center
Fri 03:44:25 PM 30.1411 -81.4131 10° North 263 303 23,000  Level Jacksonville Center
Fri 03:45:25 PM 30.2181 -81.3975 10° North 268 308 23,000  Level Jacksonville Center
Fri 03:46:25 PM 30.2931 -81.3842 North 268 308 23,000  Level Jacksonville Center
Fri 03:47:25 PM 30.3661 -81.3686 10° North 273 314 23,000  Level Jacksonville Center
Fri 03:48:25 PM 30.4431 -81.3506 11° North 273 314 23,000  Level Jacksonville Center
Fri 03:49:25 PM 30.5181 -81.3397 North 273 314 23,000  Level Jacksonville Center
Fri 03:50:25 PM 30.5950 -81.3214 12° North 273 314 23,000  Level Jacksonville Center
Fri 03:51:25 PM 30.6681 -81.3058 10° North 273 314 23,000  Level Jacksonville Center
Fri 03:52:25 PM 30.7450 -81.2925 North 273 314 23,000  Level Jacksonville Center
Fri 03:53:25 PM 30.8200 -81.2767 10° North 278 320 23,000  Level Jacksonville Center
Fri 03:54:25 PM 30.8950 -81.2633 North 278 320 23,000 500 Level Jacksonville Center
Fri 03:55:25 PM 30.9636 -81.2500 North 272 313 24,000 950 Climbing Jacksonville Center
Fri 03:56:25 PM 31.0303 -81.2342 12° North 250 288 24,900 500 Climbing Jacksonville Center
Fri 03:57:25 PM 31.1011 -81.2233 North 243 280 25,000 50 Climbing Jacksonville Center
Fri 03:58:25 PM 31.1742 -81.2075 11° North 248 285 25,000  Level Jacksonville Center
Fri 03:59:25 PM 31.2489 -81.1917 10° North 261 300 25,000  Level Jacksonville Center
Fri 04:00:25 PM 31.3261 -81.1756 10° North 266 306 25,000  Level Jacksonville Center
Fri 04:01:25 PM 31.3967 -81.1403 23° Northeast 277 319 25,000  Level Jacksonville Center
Fri 04:02:25 PM 31.4794 -81.0997 23° Northeast 290 334 25,000  Level Jacksonville Center
Fri 04:03:25 PM 31.5481 -81.0667 22° Northeast 290 334 25,000  Level Jacksonville Center
Fri 04:04:25 PM 31.6286 -81.0236 24° Northeast 290 334 25,000  Level Jacksonville Center
Fri 04:05:25 PM 31.7011 -80.9856 24° Northeast 290 334 25,000  Level Jacksonville Center
Fri 04:06:25 PM 31.7697 -80.9522 22° Northeast 290 334 25,000  Level Jacksonville Center
Fri 04:07:25 PM 31.8483 -80.9114 24° Northeast 290 334 25,000  Level Jacksonville Center
Fri 04:08:25 PM 31.9228 -80.8756 22° Northeast 290 334 25,000  Level Jacksonville Center
Fri 04:09:25 PM 31.9953 -80.8372 24° Northeast 285 328 25,000  Level Jacksonville Center
Fri 04:10:25 PM 32.0678 -80.8014 23° Northeast 280 322 25,000  Level Jacksonville Center
Fri 04:11:25 PM 32.1319 -80.7681 24° Northeast 275 316 25,000  Level Jacksonville Center
Fri 04:12:25 PM 32.2044 -80.7269 26° Northeast 275 316 25,000  Level Jacksonville Center
Fri 04:13:25 PM 32.2769 -80.6908 23° Northeast 275 316 25,000  Level Jacksonville Center
Fri 04:14:25 PM 32.3492 -80.6547 23° Northeast 275 316 25,000  Level Jacksonville Center
Fri 04:15:25 PM 32.4197 -80.6186 23° Northeast 275 316 25,000  Level Jacksonville Center
Fri 04:16:25 PM 32.4919 -80.5797 24° Northeast 275 316 25,000  Level Jacksonville Center
Fri 04:17:25 PM 32.5644 -80.5436 23° Northeast 275 316 25,000  Level Jacksonville Center
Fri 04:18:25 PM 32.6367 -80.5069 23° Northeast 275 316 25,000  Level Jacksonville Center
Fri 04:19:25 PM 32.7069 -80.4683 25° Northeast 275 316 25,000  Level Jacksonville Center
Fri 04:20:25 PM 32.7794 -80.4317 23° Northeast 275 316 25,000  Level Jacksonville Center
Fri 04:21:25 PM 32.8497 -80.3953 24° Northeast 270 311 25,000  Level Jacksonville Center
Fri 04:22:25 PM 32.9219 -80.3561 24° Northeast 270 311 25,000  Level Jacksonville Center
Fri 04:23:25 PM 33.0025 -80.3142 24° Northeast 275 316 25,000  Level Jacksonville Center
Fri 04:24:25 PM 33.0728 -80.2797 22° Northeast 276 318 25,000  Level Jacksonville Center
Fri 04:25:25 PM 33.1450 -80.2406 24° Northeast 276 318 25,000  Level Jacksonville Center
Fri 04:26:25 PM 33.2150 -80.2036 24° Northeast 271 312 25,000  Level Jacksonville Center
Fri 04:27:25 PM 33.2853 -80.1669 24° Northeast 271 312 25,000  Level Jacksonville Center
Fri 04:28:25 PM 33.3533 -80.1300 24° Northeast 271 312 25,000  Level Jacksonville Center
Fri 04:29:25 PM 33.4256 -80.0928 23° Northeast 271 312 25,000  Level Jacksonville Center
Fri 04:30:25 PM 33.4936 -80.0558 24° Northeast 271 312 25,000  Level Jacksonville Center
Fri 04:31:25 PM 33.5636 -80.0186 24° Northeast 271 312 25,000 -200 Level Jacksonville Center
Fri 04:32:25 PM 33.6358 -79.9789 25° Northeast 271 312 24,600 -450 Descending Jacksonville Center
Fri 04:33:25 PM 33.7058 -79.9417 24° Northeast 271 312 24,100 -650 Descending Jacksonville Center
Fri 04:34:25 PM 33.7758 -79.9017 25° Northeast 271 312 23,300 -1,250 Descending Jacksonville Center
Fri 04:35:25 PM 33.8461 -79.8644 24° Northeast 271 312 21,600 -1,750 Descending Jacksonville Center
Fri 04:36:25 PM 33.9119 -79.8322 22° Northeast 265 305 19,800 -1,650 Descending Jacksonville Center
Fri 04:37:25 PM 33.9722 -79.8250 North 236 272 18,300 -1,200 Descending Jacksonville Center
Fri 04:38:25 PM 34.0286 -79.8206 North 216 249 17,400 -1,300 Descending Jacksonville Center
Fri 04:39:25 PM 34.0772 -79.8539 330° Northwest 197 227 15,700 -1,200 Descending Jacksonville Center
Fri 04:40:25 PM 34.1242 -79.8875 329° Northwest 192 221 15,000 -550 Descending Jacksonville Center
Fri 04:41:25 PM 34.1708 -79.9208 329° Northwest 197 227 14,600 -650 Descending Jacksonville Center
Fri 04:42:25 PM 34.2197 -79.9594 327° Northwest 197 227 13,700 -850 Descending Jacksonville Center
Fri 04:43:25 PM 34.2664 -79.9931 329° Northwest 197 227 12,900 -750 Descending Jacksonville Center
Fri 04:44:25 PM 34.3131 -80.0267 329° Northwest 197 227 12,200 -800 Descending Jacksonville Center
Fri 04:45:25 PM 34.3617 -80.0603 330° Northwest 192 221 11,300 -800 Descending Jacksonville Center
Fri 04:46:25 PM 34.4083 -80.0939 329° Northwest 192 221 10,600 -750 Descending Jacksonville Center
Fri 04:47:25 PM 34.4531 -80.1303 326° Northwest 192 221 9,800 -663 Descending Jacksonville Center
Fri 04:49:17 PM 34.5375 -80.1958 309° West 190 219 8,700 -584 Descending Atlanta Center
Fri 04:50:30 PM 34.5931 -80.2336 331° Northwest 190 219 8,000 -313 Descending Atlanta Center
Fri 04:51:31 PM 34.6381 -80.2694 327° Northwest 191 220 8,000  Level Atlanta Center
Fri 04:52:33 PM 34.6769 -80.3108 319° Northwest 193 222 8,000  Level Atlanta Center
Fri 04:53:34 PM 34.7181 -80.3594 316° Northwest 191 220 8,000 -207 Level Atlanta Center
Fri 04:54:29 PM 34.7506 -80.4036 312° West 186 214 7,600 -517 Descending Atlanta Center
Fri 04:55:30 PM 34.7833 -80.4525 309° West 192 221 7,000 -609 Descending Atlanta Center
Fri 04:56:37 PM 34.7997 -80.5203 286° West 196 226 6,300 -469 Descending Atlanta Center
Fri 04:57:38 PM 34.8142 -80.5853 285° West 194 223 6,000 -148 Descending Atlanta Center
Fri 04:58:39 PM 34.8286 -80.6531 285° West 191 220 6,000 -246 Level Atlanta Center
Fri 04:59:40 PM 34.8469 -80.7131 290° West 194 223 5,500 -569 Descending Atlanta Center
Fri 05:00:35 PM 34.8711 -80.7603 302° West 173 199 4,900 -703 Descending Atlanta Center
Fri 05:01:48 PM 34.9019 -80.8197 302° West 166 191 4,000 -443 Descending Atlanta Center
Fri 05:02:37 PM 34.9258 -80.8494 314° West 158 182 4,000  Level Atlanta Center
Fri 05:03:44 PM 34.9583 -80.9014 307° West 163 188 4,000  Level Atlanta Center
Fri 05:04:45 PM 34.9964 -80.9228 335° Northwest 161 185 4,000  Level Atlanta Center
Fri 05:05:46 PM 35.0403 -80.9236 359° North 155 178 4,000 -344 Level Atlanta Center
Fri 05:06:47 PM 35.0822 -80.9297 353° North 151 174 3,300 -797 Descending Atlanta Center
Fri 05:07:54 PM 35.1261 -80.9306 359° North 137 158 2,300 -756 Descending Atlanta Center
Fri 05:08:54 PM 35.1594 -80.9342 355° North 117 135 1,700 -645 Descending Atlanta Center
Fri 05:09:55 PM 35.1886 -80.9358 357° North 101 116 1,000 -689 Descending Atlanta Center

Login

Don't have an account? Register now (free) for customized features, flight alerts, and more!